createdAt,value
2023-11-13T00:01:31.295Z,45.92
2023-11-13T00:04:01.185Z,43.92
2023-11-13T00:06:29.367Z,45.42
2023-11-13T00:08:59.491Z,43.95
2023-11-13T00:11:28.265Z,45.40
2023-11-13T00:14:04.813Z,45.40
2023-11-13T00:16:35.022Z,67.68
2023-11-13T00:19:03.341Z,45.88
2023-11-13T00:21:33.522Z,47.08
2023-11-13T00:24:01.117Z,45.97
2023-11-13T00:26:28.710Z,46.60
2023-11-13T00:29:00.430Z,44.10
2023-11-13T00:31:37.581Z,42.13
2023-11-13T00:34:08.860Z,45.47
2023-11-13T00:36:37.933Z,58.88
2023-11-13T00:39:07.896Z,107.47
2023-11-13T00:41:44.342Z,78.00
2023-11-13T00:44:14.986Z,61.38
2023-11-13T00:46:45.526Z,60.58
2023-11-13T00:49:15.694Z,50.53
2023-11-13T00:51:45.143Z,78.85
2023-11-13T00:54:12.384Z,66.57
2023-11-13T00:56:44.355Z,59.70
2023-11-13T00:59:13.131Z,47.10
2023-11-13T01:01:40.890Z,42.63
2023-11-13T01:04:10.517Z,38.13
2023-11-13T01:06:38.560Z,33.33
2023-11-13T01:09:06.046Z,33.20
2023-11-13T01:11:36.440Z,36.92
2023-11-13T01:14:06.811Z,33.90
2023-11-13T01:16:37.216Z,33.80
2023-11-13T01:19:05.373Z,40.25
2023-11-13T01:21:34.706Z,56.92
2023-11-13T01:24:05.503Z,51.45
2023-11-13T01:26:34.668Z,45.58
2023-11-13T01:29:03.073Z,47.85
2023-11-13T01:31:32.920Z,48.15
2023-11-13T01:34:01.778Z,48.50
2023-11-13T01:36:31.878Z,45.90
2023-11-13T01:39:02.099Z,47.83
2023-11-13T01:41:38.759Z,48.40
2023-11-13T01:44:15.601Z,48.53
2023-11-13T01:46:46.832Z,46.25
2023-11-13T01:49:13.835Z,44.10
2023-11-13T01:51:45.580Z,45.90
2023-11-13T01:54:16.449Z,46.75
2023-11-13T01:56:47.374Z,48.92
2023-11-13T01:59:18.986Z,48.72
2023-11-13T02:01:50.570Z,49.45
2023-11-13T02:04:18.289Z,49.35
2023-11-13T02:06:49.464Z,47.88
2023-11-13T02:09:18.023Z,44.13
2023-11-13T02:11:52.402Z,47.78
2023-11-13T02:14:19.941Z,46.25
2023-11-13T02:16:46.959Z,43.13
2023-11-13T02:19:20.631Z,44.97
2023-11-13T02:21:51.766Z,42.85
2023-11-13T02:24:26.270Z,40.05
2023-11-13T02:26:55.697Z,41.42
2023-11-13T02:29:23.403Z,41.17
2023-11-13T02:31:58.249Z,40.63
2023-11-13T02:34:28.216Z,39.72
2023-11-13T02:36:58.241Z,39.53
2023-11-13T02:39:26.185Z,37.80
2023-11-13T02:42:03.684Z,38.00
2023-11-13T02:44:35.691Z,39.22
2023-11-13T02:47:03.255Z,37.40
2023-11-13T02:49:32.964Z,38.67
2023-11-13T02:52:02.670Z,35.58
2023-11-13T02:54:39.543Z,35.45
2023-11-13T02:57:06.985Z,37.10
2023-11-13T02:59:44.059Z,34.90
2023-11-13T03:02:19.852Z,33.92
2023-11-13T03:04:49.655Z,36.05
2023-11-13T03:07:20.152Z,34.13
2023-11-13T03:09:49.780Z,36.25
2023-11-13T03:12:18.047Z,35.42
2023-11-13T03:14:47.273Z,36.33
2023-11-13T03:17:23.182Z,38.63
2023-11-13T03:19:50.534Z,33.55
2023-11-13T03:22:20.554Z,40.08
2023-11-13T03:24:50.780Z,40.55
2023-11-13T03:27:19.227Z,43.40
2023-11-13T03:29:50.335Z,43.38
2023-11-13T03:32:21.499Z,41.38
2023-11-13T03:34:50.609Z,41.10
2023-11-13T03:37:19.306Z,37.03
2023-11-13T03:39:47.723Z,38.47
2023-11-13T03:42:17.153Z,41.25
2023-11-13T03:44:46.968Z,40.97
2023-11-13T03:47:17.164Z,40.50
2023-11-13T03:49:45.297Z,40.45
2023-11-13T03:52:22.034Z,40.95
2023-11-13T03:54:52.712Z,39.40
2023-11-13T03:57:22.340Z,46.47
2023-11-13T03:59:51.259Z,39.90
2023-11-13T04:02:21.738Z,39.00
2023-11-13T04:04:51.665Z,47.30
2023-11-13T04:07:24.058Z,43.13
2023-11-13T04:09:59.786Z,43.92
2023-11-13T04:12:29.390Z,44.30
2023-11-13T04:14:59.342Z,43.55
2023-11-13T04:17:26.300Z,42.50
2023-11-13T04:20:02.425Z,40.45
2023-11-13T04:22:33.810Z,37.50
2023-11-13T04:25:05.409Z,37.53
2023-11-13T04:27:36.086Z,33.78
2023-11-13T04:30:05.592Z,37.00
2023-11-13T04:32:34.389Z,35.33
2023-11-13T04:35:03.157Z,34.08
2023-11-13T04:37:34.545Z,37.05
2023-11-13T04:40:08.989Z,35.55
2023-11-13T04:42:44.988Z,34.33
2023-11-13T04:45:15.868Z,35.60
2023-11-13T04:47:46.264Z,36.13
2023-11-13T04:50:14.580Z,33.80
2023-11-13T04:52:45.194Z,36.47
2023-11-13T04:55:14.489Z,33.97
2023-11-13T04:57:43.850Z,36.95
2023-11-13T05:00:14.803Z,35.63
2023-11-13T05:02:50.084Z,34.90
2023-11-13T05:05:17.519Z,33.95
2023-11-13T05:07:48.706Z,35.90
2023-11-13T05:10:15.817Z,28.95
2023-11-13T05:12:53.150Z,31.75
2023-11-13T05:15:21.536Z,28.52
2023-11-13T05:17:52.305Z,33.15
2023-11-13T05:20:22.892Z,34.65
2023-11-13T05:22:52.731Z,37.25
2023-11-13T05:25:22.263Z,38.33
2023-11-13T05:27:52.594Z,33.45
2023-11-13T05:30:20.793Z,30.10
2023-11-13T05:32:51.431Z,27.23
2023-11-13T05:35:21.470Z,28.92
2023-11-13T05:37:49.142Z,33.63
2023-11-13T05:40:23.221Z,29.35
2023-11-13T05:42:53.682Z,28.80
2023-11-13T05:45:22.863Z,26.00
2023-11-13T05:47:50.043Z,28.27
2023-11-13T05:50:19.991Z,26.92
2023-11-13T05:52:50.404Z,26.13
2023-11-13T05:55:19.720Z,24.42
2023-11-13T05:57:50.030Z,26.00
2023-11-13T06:00:20.437Z,24.23
2023-11-13T06:02:47.753Z,23.35
2023-11-13T06:05:22.346Z,29.42
2023-11-13T06:07:52.254Z,26.52
2023-11-13T06:10:21.067Z,24.88
2023-11-13T06:12:49.117Z,28.45
2023-11-13T06:15:21.193Z,27.80
2023-11-13T06:17:49.130Z,25.45
2023-11-13T06:20:17.352Z,29.90
2023-11-13T06:22:51.921Z,24.70
2023-11-13T06:25:23.807Z,22.27
2023-11-13T06:27:54.077Z,22.45
2023-11-13T06:30:27.400Z,25.63
2023-11-13T06:32:54.802Z,19.63
2023-11-13T06:35:30.767Z,20.40
2023-11-13T06:38:01.125Z,26.33
2023-11-13T06:40:28.982Z,42.97
2023-11-13T06:42:58.254Z,41.28
2023-11-13T06:45:28.658Z,52.85
2023-11-13T06:47:55.617Z,46.28
2023-11-13T06:50:22.512Z,48.75
2023-11-13T06:52:52.720Z,47.90
2023-11-13T06:55:21.674Z,47.88
2023-11-13T06:57:48.840Z,47.38
2023-11-13T07:00:18.042Z,47.75
2023-11-13T07:02:49.086Z,47.78
2023-11-13T07:05:20.811Z,46.67
2023-11-13T07:07:49.395Z,46.72
2023-11-13T07:10:16.323Z,50.15
2023-11-13T07:12:46.920Z,56.38
2023-11-13T07:15:13.506Z,59.33
2023-11-13T07:17:44.715Z,49.10
2023-11-13T07:20:15.078Z,50.08
2023-11-13T07:22:54.788Z,44.80
2023-11-13T07:25:26.168Z,42.92
2023-11-13T07:27:56.624Z,42.53
2023-11-13T07:30:33.936Z,36.83
2023-11-13T07:33:04.672Z,26.55
2023-11-13T07:35:33.137Z,25.95
2023-11-13T07:38:02.758Z,23.65
2023-11-13T07:40:30.376Z,21.02
2023-11-13T07:42:58.736Z,19.85
2023-11-13T07:45:26.886Z,15.55
2023-11-13T07:47:57.986Z,13.77
2023-11-13T07:50:56.397Z,17.85
2023-11-13T07:53:24.441Z,15.90
2023-11-13T07:55:52.468Z,14.82
2023-11-13T07:58:19.229Z,15.10
2023-11-13T08:00:50.323Z,17.15
2023-11-13T08:03:27.066Z,17.83
2023-11-13T08:05:55.117Z,20.02
2023-11-13T08:08:26.215Z,21.23
2023-11-13T08:10:54.851Z,23.35
2023-11-13T08:13:25.992Z,20.75
2023-11-13T08:15:55.080Z,19.80
2023-11-13T08:18:26.566Z,20.08
2023-11-13T08:20:54.840Z,17.25
2023-11-13T08:23:24.288Z,18.60
2023-11-13T08:25:52.853Z,21.48
2023-11-13T08:28:23.581Z,19.73
2023-11-13T08:30:56.225Z,18.23
2023-11-13T08:33:24.465Z,21.90
2023-11-13T08:35:55.077Z,17.88
2023-11-13T08:38:24.894Z,21.08
2023-11-13T08:40:54.522Z,18.02
2023-11-13T08:43:27.204Z,17.52
2023-11-13T08:46:00.885Z,16.45
2023-11-13T08:48:30.218Z,18.17
2023-11-13T08:51:01.846Z,14.00
2023-11-13T08:53:31.102Z,12.88
2023-11-13T08:56:06.242Z,12.32
2023-11-13T08:58:39.612Z,12.00
2023-11-13T09:01:11.526Z,11.50
2023-11-13T09:03:43.488Z,11.60
2023-11-13T09:06:14.965Z,11.40
2023-11-13T09:08:52.558Z,11.38
2023-11-13T09:11:21.650Z,9.10
2023-11-13T09:13:49.167Z,10.40
2023-11-13T09:16:23.648Z,9.85
2023-11-13T09:19:01.246Z,8.73
2023-11-13T09:21:32.886Z,7.32
2023-11-13T09:24:01.870Z,7.73
2023-11-13T09:26:30.319Z,6.82
2023-11-13T09:28:57.014Z,7.45
2023-11-13T09:31:24.253Z,7.15
2023-11-13T09:33:55.368Z,8.13
2023-11-13T09:36:23.833Z,6.45
2023-11-13T09:38:58.563Z,7.45
2023-11-13T09:41:33.840Z,6.45
2023-11-13T09:44:10.089Z,8.50
2023-11-13T09:46:41.000Z,6.85
2023-11-13T09:49:15.778Z,7.05
2023-11-13T09:51:45.879Z,6.38
2023-11-13T09:54:14.636Z,8.63
2023-11-13T09:56:42.231Z,7.65
2023-11-13T09:59:11.831Z,5.70
2023-11-13T10:01:40.657Z,7.03
2023-11-13T10:04:10.392Z,6.68
2023-11-13T10:06:44.171Z,6.25
2023-11-13T10:09:14.166Z,6.47
2023-11-13T10:11:43.123Z,6.28
2023-11-13T10:14:21.618Z,7.30
2023-11-13T10:17:04.088Z,6.72
2023-11-13T10:19:31.114Z,5.93
2023-11-13T10:22:08.675Z,5.47
2023-11-13T10:24:46.056Z,5.57
2023-11-13T10:27:17.410Z,6.10
2023-11-13T10:29:45.185Z,6.07
2023-11-13T10:32:20.751Z,5.63
2023-11-13T10:34:50.578Z,6.18
2023-11-13T10:37:20.640Z,5.35
2023-11-13T10:39:58.702Z,4.85
2023-11-13T10:42:36.291Z,4.63
2023-11-13T10:45:05.958Z,5.63
2023-11-13T10:47:34.048Z,4.25
2023-11-13T10:50:05.247Z,4.85
2023-11-13T10:52:35.570Z,4.33
2023-11-13T10:55:14.477Z,5.27
2023-11-13T10:57:42.828Z,4.13
2023-11-13T11:00:17.362Z,4.40
2023-11-13T11:02:49.854Z,4.78
2023-11-13T11:05:27.903Z,4.28
2023-11-13T11:07:57.048Z,4.05
2023-11-13T11:10:30.698Z,4.22
2023-11-13T11:13:17.988Z,4.40
2023-11-13T11:16:14.221Z,4.68
2023-11-13T11:19:07.671Z,4.28
2023-11-13T11:22:06.554Z,4.20
2023-11-13T11:25:01.578Z,4.22
2023-11-13T11:27:45.004Z,4.50
2023-11-13T11:30:46.494Z,4.45
2023-11-13T11:33:14.651Z,4.30
2023-11-13T11:35:51.446Z,4.03
2023-11-13T11:38:29.945Z,3.95
2023-11-13T11:41:01.887Z,4.28
2023-11-13T11:43:39.539Z,4.05
2023-11-13T11:46:10.354Z,4.80
2023-11-13T11:51:33.506Z,3.38
2023-11-13T11:54:02.471Z,3.28
2023-11-13T11:56:34.700Z,3.42
2023-11-13T11:59:13.717Z,3.55
2023-11-13T12:01:42.585Z,2.35
2023-11-13T12:04:13.059Z,3.28
2023-11-13T12:06:43.483Z,2.42
2023-11-13T12:09:15.771Z,2.38
2023-11-13T12:11:51.754Z,2.85
2023-11-13T12:14:23.200Z,2.85
2023-11-13T12:16:54.413Z,2.85
2023-11-13T12:19:24.204Z,2.97
2023-11-13T12:21:52.463Z,3.00
2023-11-13T12:24:19.380Z,2.85
2023-11-13T12:26:47.708Z,2.90
2023-11-13T12:29:23.126Z,2.80
2023-11-13T12:31:57.601Z,2.88
2023-11-13T12:34:25.649Z,2.78
2023-11-13T12:37:02.568Z,2.60
2023-11-13T12:39:38.915Z,3.53
2023-11-13T12:42:08.534Z,3.25
2023-11-13T12:44:36.375Z,2.65
2023-11-13T12:47:07.624Z,2.30
2023-11-13T12:49:43.983Z,2.97
2023-11-13T12:52:17.956Z,2.95
2023-11-13T12:54:56.752Z,2.67
2023-11-13T12:57:24.801Z,2.85
2023-11-13T12:59:55.972Z,3.03
2023-11-13T13:02:25.174Z,2.90
2023-11-13T13:04:59.586Z,2.80
2023-11-13T13:07:38.177Z,2.75
2023-11-13T13:10:15.697Z,3.08
2023-11-13T13:12:48.326Z,3.08
2023-11-13T13:15:21.865Z,2.65
2023-11-13T13:17:52.446Z,3.25
2023-11-13T13:20:27.477Z,3.15
2023-11-13T13:22:56.268Z,3.25
2023-11-13T13:25:26.614Z,2.25
2023-11-13T13:27:57.238Z,2.83
2023-11-13T13:30:25.161Z,2.85
2023-11-13T13:32:54.783Z,2.30
2023-11-13T13:35:24.475Z,3.00
2023-11-13T13:37:55.051Z,3.10
2023-11-13T13:40:23.266Z,2.80
2023-11-13T13:42:51.780Z,3.55
2023-11-13T13:45:21.601Z,2.88
2023-11-13T13:47:58.689Z,4.30
2023-11-13T13:50:35.842Z,4.05
2023-11-13T13:53:06.903Z,3.00
2023-11-13T13:55:35.073Z,2.67
2023-11-13T13:58:03.176Z,3.03
2023-11-13T14:00:37.566Z,3.20
2023-11-13T14:03:12.525Z,4.10
2023-11-13T14:05:44.606Z,3.50
2023-11-13T14:08:17.778Z,2.97
2023-11-13T14:10:50.062Z,2.97
2023-11-13T14:13:17.949Z,4.60
2023-11-13T14:16:04.844Z,4.22
2023-11-13T14:18:40.290Z,54.88
2023-11-13T14:21:10.316Z,106.07
2023-11-13T14:23:44.206Z,48.97
2023-11-13T14:26:18.014Z,31.45
2023-11-13T14:28:47.958Z,47.50
2023-11-13T14:31:24.432Z,27.95
2023-11-13T14:33:53.572Z,21.95
2023-11-13T14:36:23.862Z,22.10
2023-11-13T14:38:51.472Z,20.55
2023-11-13T14:41:18.567Z,18.67
2023-11-13T14:43:49.758Z,16.02
2023-11-13T14:46:18.130Z,26.60
2023-11-13T14:48:48.849Z,27.60
2023-11-13T14:51:21.481Z,23.58
2023-11-13T14:53:52.000Z,17.13
2023-11-13T14:56:18.876Z,12.63
2023-11-13T14:58:49.768Z,14.25
2023-11-13T15:01:18.946Z,13.55
2023-11-13T15:03:52.001Z,9.32
2023-11-13T15:06:21.544Z,7.25
2023-11-13T15:08:48.271Z,6.60
2023-11-13T15:11:18.207Z,6.13
2023-11-13T15:13:47.703Z,5.95
2023-11-13T15:16:19.282Z,4.85
2023-11-13T15:18:50.379Z,8.63
2023-11-13T15:21:17.852Z,48.75
2023-11-13T15:23:48.370Z,14.18
2023-11-13T15:26:15.434Z,6.45
2023-11-13T15:28:42.141Z,9.20
2023-11-13T15:31:12.491Z,10.00
2023-11-13T15:33:41.669Z,10.02
2023-11-13T15:36:10.665Z,11.85
2023-11-13T15:38:39.526Z,24.73
2023-11-13T15:41:07.586Z,29.27
2023-11-13T15:43:35.911Z,78.32
2023-11-13T15:46:05.829Z,68.95
2023-11-13T15:48:33.063Z,56.70
2023-11-13T15:51:03.978Z,57.08
2023-11-13T15:53:35.572Z,39.38
2023-11-13T15:56:04.271Z,22.83
2023-11-13T15:58:32.260Z,24.02
2023-11-13T16:00:59.832Z,54.58
2023-11-13T16:03:33.517Z,38.92
2023-11-13T16:06:14.121Z,31.88
2023-11-13T16:08:45.951Z,15.45
2023-11-13T16:11:12.801Z,16.45
2023-11-13T16:13:44.794Z,25.70
2023-11-13T16:16:14.240Z,30.35
2023-11-13T16:18:44.584Z,22.05
2023-11-13T16:21:18.972Z,19.63
2023-11-13T16:23:52.543Z,16.00
2023-11-13T16:26:22.206Z,24.50
2023-11-13T16:28:50.367Z,26.33
2023-11-13T16:31:30.157Z,17.15
2023-11-13T16:33:58.691Z,13.00
2023-11-13T16:36:27.185Z,11.65
2023-11-13T16:38:57.398Z,11.90
2023-11-13T16:41:27.376Z,14.55
2023-11-13T16:43:54.338Z,13.00
2023-11-13T16:46:22.604Z,11.35
2023-11-13T16:48:52.631Z,171.35
2023-11-13T16:51:28.002Z,105.80
2023-11-13T16:53:58.065Z,286.15
2023-11-13T16:56:26.408Z,365.67
2023-11-13T16:58:56.319Z,308.30
2023-11-13T17:01:27.639Z,288.30
2023-11-13T17:03:56.557Z,110.15
2023-11-13T17:06:24.040Z,65.78
2023-11-13T17:08:51.767Z,70.32
2023-11-13T17:11:21.691Z,87.05
2023-11-13T17:13:56.646Z,60.13
2023-11-13T17:16:30.099Z,46.13
2023-11-13T17:19:02.595Z,40.30
2023-11-13T17:21:31.710Z,298.90
2023-11-13T17:23:58.635Z,149.45
2023-11-13T17:26:25.401Z,231.63
2023-11-13T17:28:54.463Z,131.50
2023-11-13T17:31:25.528Z,136.95
2023-11-13T17:33:53.895Z,165.63
2023-11-13T17:36:22.375Z,377.65
2023-11-13T17:38:51.612Z,436.80
2023-11-13T17:41:18.493Z,280.25
2023-11-13T17:43:49.739Z,232.48
2023-11-13T17:46:19.374Z,85.40
2023-11-13T17:48:51.828Z,12.60
2023-11-13T17:51:29.266Z,9.32
2023-11-13T17:53:56.576Z,30.58
2023-11-13T17:56:25.572Z,81.82
2023-11-13T18:01:28.557Z,88.97
2023-11-13T18:03:56.400Z,63.38
2023-11-13T18:06:25.120Z,42.97
2023-11-13T18:08:54.206Z,50.20
2023-11-13T18:11:24.288Z,39.10
2023-11-13T18:13:52.759Z,20.42
2023-11-13T18:16:22.943Z,70.18
2023-11-13T18:18:55.872Z,131.10
2023-11-13T18:21:23.928Z,14.32
2023-11-13T18:23:52.115Z,75.18
2023-11-13T18:26:21.161Z,234.30
2023-11-13T18:28:49.410Z,210.05
2023-11-13T18:31:19.028Z,99.00
2023-11-13T18:33:46.165Z,35.65
2023-11-13T18:36:16.360Z,32.95
2023-11-13T18:38:45.764Z,14.05
2023-11-13T18:41:17.766Z,14.95
2023-11-13T18:43:45.495Z,17.35
2023-11-13T18:46:13.632Z,14.45
2023-11-13T18:48:42.306Z,13.65
2023-11-13T18:51:12.002Z,15.50
2023-11-13T18:53:42.138Z,11.27
2023-11-13T18:56:20.628Z,12.45
2023-11-13T18:58:49.376Z,13.07
2023-11-13T19:01:18.742Z,19.83
2023-11-13T19:03:47.145Z,15.02
2023-11-13T19:06:18.971Z,19.60
2023-11-13T19:08:48.728Z,355.10
2023-11-13T19:11:15.787Z,286.20
2023-11-13T19:13:42.600Z,262.50
2023-11-13T19:16:09.536Z,168.25
2023-11-13T19:18:36.635Z,147.30
2023-11-13T19:21:05.541Z,65.03
2023-11-13T19:23:32.780Z,84.53
2023-11-13T19:26:01.428Z,95.97
2023-11-13T19:28:31.121Z,116.32
2023-11-13T19:31:00.246Z,121.65
2023-11-13T19:33:27.484Z,103.55
2023-11-13T19:35:54.998Z,92.25
2023-11-13T19:38:22.839Z,84.55
2023-11-13T19:40:50.476Z,88.22
2023-11-13T19:43:18.396Z,87.35
2023-11-13T19:45:46.811Z,91.63
2023-11-13T19:48:18.752Z,101.75
2023-11-13T19:50:45.504Z,103.57
2023-11-13T19:53:15.928Z,88.45
2023-11-13T19:55:44.715Z,72.07
2023-11-13T19:58:11.672Z,59.90
2023-11-13T20:00:41.056Z,46.75
2023-11-13T20:03:08.841Z,40.20
2023-11-13T20:05:37.018Z,39.92
2023-11-13T20:08:07.130Z,35.72
2023-11-13T20:10:35.367Z,39.47
2023-11-13T20:13:05.782Z,50.80
2023-11-13T20:15:34.328Z,55.30
2023-11-13T20:18:01.076Z,48.30
2023-11-13T20:20:30.071Z,50.63
2023-11-13T20:22:58.108Z,56.40
2023-11-13T20:25:27.349Z,57.22
2023-11-13T20:27:55.254Z,56.30
2023-11-13T20:30:25.652Z,47.13
2023-11-13T20:32:52.496Z,50.50
2023-11-13T20:35:20.457Z,52.65
2023-11-13T20:37:50.036Z,61.40
2023-11-13T20:40:17.417Z,61.97
2023-11-13T20:42:46.501Z,60.45
2023-11-13T20:45:13.506Z,63.28
2023-11-13T20:47:40.661Z,61.22
2023-11-13T20:50:09.334Z,64.50
2023-11-13T20:52:36.529Z,61.25
2023-11-13T20:55:04.977Z,64.85
2023-11-13T20:57:33.127Z,57.35
2023-11-13T21:00:07.350Z,54.15
2023-11-13T21:02:35.173Z,47.70
2023-11-13T21:05:07.428Z,48.70
2023-11-13T21:07:35.997Z,47.03
2023-11-13T21:10:12.433Z,42.67
2023-11-13T21:12:43.172Z,40.55
2023-11-13T21:15:10.487Z,41.65
2023-11-13T21:17:40.236Z,39.97
2023-11-13T21:20:13.451Z,40.58
2023-11-13T21:22:48.006Z,33.63
2023-11-13T21:25:16.908Z,35.00
2023-11-13T21:27:47.866Z,33.08
2023-11-13T21:30:14.696Z,31.27
2023-11-13T21:32:44.535Z,28.92
2023-11-13T21:35:14.080Z,28.23
2023-11-13T21:37:43.041Z,27.83
2023-11-13T21:40:21.660Z,37.15
2023-11-13T21:42:58.032Z,34.63
2023-11-13T21:45:28.636Z,46.58
2023-11-13T21:47:57.966Z,38.67
2023-11-13T21:50:24.672Z,36.40
2023-11-13T21:52:52.657Z,36.22
2023-11-13T21:55:20.878Z,32.80
2023-11-13T21:57:48.420Z,40.10
2023-11-13T22:00:16.921Z,40.45
2023-11-13T22:02:44.878Z,40.20
2023-11-13T22:05:12.774Z,50.40
2023-11-13T22:07:46.360Z,59.10
2023-11-13T22:10:16.011Z,75.07
2023-11-13T22:12:47.047Z,67.75
2023-11-13T22:15:17.210Z,67.75
2023-11-13T22:17:48.559Z,70.50
2023-11-13T22:20:15.871Z,73.40
2023-11-13T22:22:45.028Z,73.35
2023-11-13T22:25:14.509Z,71.70
2023-11-13T22:27:43.333Z,71.95
2023-11-13T22:30:12.056Z,65.40
2023-11-13T22:32:41.960Z,70.82
2023-11-13T22:35:14.090Z,59.90
2023-11-13T22:37:44.067Z,66.10
2023-11-13T22:40:12.975Z,48.92
2023-11-13T22:42:43.162Z,52.35
2023-11-13T22:45:11.197Z,59.40
2023-11-13T22:47:42.042Z,51.90
2023-11-13T22:50:09.224Z,49.80
2023-11-13T22:52:39.311Z,45.97
2023-11-13T22:55:10.064Z,46.38
2023-11-13T22:57:37.521Z,48.95
2023-11-13T23:00:12.920Z,45.83
2023-11-13T23:02:41.400Z,42.67
2023-11-13T23:05:11.868Z,42.10
2023-11-13T23:07:39.083Z,42.60
2023-11-13T23:10:09.519Z,39.58
2023-11-13T23:12:37.749Z,41.38
2023-11-13T23:15:08.145Z,47.13
2023-11-13T23:17:44.058Z,44.88
2023-11-13T23:20:30.639Z,44.92
2023-11-13T23:26:06.819Z,47.53
2023-11-13T23:28:38.294Z,49.95
2023-11-13T23:31:08.961Z,44.58
2023-11-13T23:33:38.012Z,47.03
2023-11-13T23:36:14.094Z,48.40
2023-11-13T23:38:45.594Z,42.95
2023-11-13T23:41:16.037Z,50.13
2023-11-13T23:43:44.930Z,50.63
2023-11-13T23:46:22.978Z,50.72
2023-11-13T23:48:51.648Z,49.90
2023-11-13T23:51:18.251Z,49.25
2023-11-13T23:53:47.138Z,47.67
2023-11-13T23:56:15.002Z,50.05
2023-11-13T23:58:45.063Z,45.92
